sensor_id;sensor_type;location;lat;lon;timestamp;P1;durP1;ratioP1;P2;durP2;ratioP2
43835;SDS011;39345;43.964;25.340;2022-12-20T00:00:53;40.38;;;19.00;;
43835;SDS011;39345;43.964;25.340;2022-12-20T00:03:20;36.75;;;17.45;;
43835;SDS011;39345;43.964;25.340;2022-12-20T00:05:48;42.88;;;18.60;;
43835;SDS011;39345;43.964;25.340;2022-12-20T00:08:16;38.60;;;18.70;;
43835;SDS011;39345;43.964;25.340;2022-12-20T00:10:44;41.92;;;18.85;;
43835;SDS011;39345;43.964;25.340;2022-12-20T00:13:12;34.45;;;15.90;;
43835;SDS011;39345;43.964;25.340;2022-12-20T00:15:39;42.92;;;18.70;;
43835;SDS011;39345;43.964;25.340;2022-12-20T00:18:07;44.08;;;18.85;;
43835;SDS011;39345;43.964;25.340;2022-12-20T00:20:34;39.25;;;17.10;;
43835;SDS011;39345;43.964;25.340;2022-12-20T00:23:02;37.45;;;17.73;;
43835;SDS011;39345;43.964;25.340;2022-12-20T00:25:29;39.13;;;17.70;;
43835;SDS011;39345;43.964;25.340;2022-12-20T00:27:57;39.05;;;17.63;;
43835;SDS011;39345;43.964;25.340;2022-12-20T00:30:24;35.65;;;16.13;;
43835;SDS011;39345;43.964;25.340;2022-12-20T00:32:52;38.55;;;15.95;;
43835;SDS011;39345;43.964;25.340;2022-12-20T00:35:19;37.20;;;16.70;;
43835;SDS011;39345;43.964;25.340;2022-12-20T00:37:47;39.30;;;17.70;;
43835;SDS011;39345;43.964;25.340;2022-12-20T00:40:14;38.08;;;17.45;;
43835;SDS011;39345;43.964;25.340;2022-12-20T00:42:41;37.40;;;17.33;;
43835;SDS011;39345;43.964;25.340;2022-12-20T00:45:09;36.30;;;17.17;;
43835;SDS011;39345;43.964;25.340;2022-12-20T00:47:37;37.10;;;17.25;;
43835;SDS011;39345;43.964;25.340;2022-12-20T00:50:04;40.17;;;18.52;;
43835;SDS011;39345;43.964;25.340;2022-12-20T00:52:32;40.08;;;18.25;;
43835;SDS011;39345;43.964;25.340;2022-12-20T00:54:59;39.58;;;17.73;;
43835;SDS011;39345;43.964;25.340;2022-12-20T00:57:27;39.78;;;18.17;;
43835;SDS011;39345;43.964;25.340;2022-12-20T00:59:54;38.70;;;17.70;;
43835;SDS011;39345;43.964;25.340;2022-12-20T01:02:22;37.03;;;17.15;;
43835;SDS011;39345;43.964;25.340;2022-12-20T01:04:50;36.60;;;17.83;;
43835;SDS011;39345;43.964;25.340;2022-12-20T01:07:17;37.97;;;17.92;;
43835;SDS011;39345;43.964;25.340;2022-12-20T01:09:45;39.13;;;17.75;;
43835;SDS011;39345;43.964;25.340;2022-12-20T01:12:13;34.42;;;15.95;;
43835;SDS011;39345;43.964;25.340;2022-12-20T01:14:40;38.65;;;17.40;;
43835;SDS011;39345;43.964;25.340;2022-12-20T01:17:08;39.72;;;18.10;;
43835;SDS011;39345;43.964;25.340;2022-12-20T01:19:36;39.45;;;18.38;;
43835;SDS011;39345;43.964;25.340;2022-12-20T01:22:03;39.80;;;16.90;;
43835;SDS011;39345;43.964;25.340;2022-12-20T01:24:31;39.03;;;17.45;;
43835;SDS011;39345;43.964;25.340;2022-12-20T01:26:58;39.15;;;16.45;;
43835;SDS011;39345;43.964;25.340;2022-12-20T01:29:26;39.10;;;17.48;;
43835;SDS011;39345;43.964;25.340;2022-12-20T01:31:53;40.60;;;18.48;;
43835;SDS011;39345;43.964;25.340;2022-12-20T01:34:21;41.22;;;17.98;;
43835;SDS011;39345;43.964;25.340;2022-12-20T01:36:48;39.78;;;16.83;;
43835;SDS011;39345;43.964;25.340;2022-12-20T01:39:16;35.30;;;17.33;;
43835;SDS011;39345;43.964;25.340;2022-12-20T01:41:45;41.67;;;17.75;;
43835;SDS011;39345;43.964;25.340;2022-12-20T01:46:44;41.10;;;18.58;;
43835;SDS011;39345;43.964;25.340;2022-12-20T01:49:22;41.58;;;19.27;;
43835;SDS011;39345;43.964;25.340;2022-12-20T01:52:01;43.95;;;18.77;;
43835;SDS011;39345;43.964;25.340;2022-12-20T01:54:31;40.42;;;18.48;;
43835;SDS011;39345;43.964;25.340;2022-12-20T01:57:01;38.63;;;16.60;;
43835;SDS011;39345;43.964;25.340;2022-12-20T01:59:31;40.78;;;17.95;;
43835;SDS011;39345;43.964;25.340;2022-12-20T02:02:02;40.78;;;18.85;;
43835;SDS011;39345;43.964;25.340;2022-12-20T02:04:30;38.60;;;18.85;;
43835;SDS011;39345;43.964;25.340;2022-12-20T02:06:58;41.10;;;19.42;;
43835;SDS011;39345;43.964;25.340;2022-12-20T02:09:26;40.90;;;18.35;;
43835;SDS011;39345;43.964;25.340;2022-12-20T02:14:40;36.60;;;16.60;;
43835;SDS011;39345;43.964;25.340;2022-12-20T02:30:38;40.45;;;18.23;;
43835;SDS011;39345;43.964;25.340;2022-12-20T02:33:09;36.97;;;18.10;;
43835;SDS011;39345;43.964;25.340;2022-12-20T02:35:38;43.70;;;18.95;;
43835;SDS011;39345;43.964;25.340;2022-12-20T02:40:57;41.97;;;18.33;;
43835;SDS011;39345;43.964;25.340;2022-12-20T02:43:25;39.08;;;18.20;;
43835;SDS011;39345;43.964;25.340;2022-12-20T02:46:13;35.17;;;16.23;;
43835;SDS011;39345;43.964;25.340;2022-12-20T02:48:41;44.65;;;18.27;;
43835;SDS011;39345;43.964;25.340;2022-12-20T02:51:09;40.90;;;18.38;;
43835;SDS011;39345;43.964;25.340;2022-12-20T02:53:37;43.97;;;19.00;;
43835;SDS011;39345;43.964;25.340;2022-12-20T02:56:15;39.78;;;17.00;;
43835;SDS011;39345;43.964;25.340;2022-12-20T02:58:49;42.50;;;18.80;;
43835;SDS011;39345;43.964;25.340;2022-12-20T03:01:25;41.10;;;18.55;;
43835;SDS011;39345;43.964;25.340;2022-12-20T03:03:55;45.17;;;19.65;;
43835;SDS011;39345;43.964;25.340;2022-12-20T03:06:23;41.80;;;20.00;;
43835;SDS011;39345;43.964;25.340;2022-12-20T03:08:50;45.78;;;18.52;;
43835;SDS011;39345;43.964;25.340;2022-12-20T03:11:21;42.13;;;18.48;;
43835;SDS011;39345;43.964;25.340;2022-12-20T03:13:48;39.13;;;18.02;;
43835;SDS011;39345;43.964;25.340;2022-12-20T03:16:16;39.78;;;18.42;;
43835;SDS011;39345;43.964;25.340;2022-12-20T03:18:43;42.15;;;19.13;;
43835;SDS011;39345;43.964;25.340;2022-12-20T03:21:11;44.67;;;20.13;;
43835;SDS011;39345;43.964;25.340;2022-12-20T03:23:39;45.60;;;19.63;;
43835;SDS011;39345;43.964;25.340;2022-12-20T03:26:06;42.83;;;19.90;;
43835;SDS011;39345;43.964;25.340;2022-12-20T03:28:41;41.45;;;19.35;;
43835;SDS011;39345;43.964;25.340;2022-12-20T03:31:13;43.47;;;19.30;;
43835;SDS011;39345;43.964;25.340;2022-12-20T03:33:46;39.60;;;18.45;;
43835;SDS011;39345;43.964;25.340;2022-12-20T03:36:14;44.22;;;19.63;;
43835;SDS011;39345;43.964;25.340;2022-12-20T03:38:42;46.45;;;20.15;;
43835;SDS011;39345;43.964;25.340;2022-12-20T03:41:09;41.00;;;18.67;;
43835;SDS011;39345;43.964;25.340;2022-12-20T03:43:37;37.83;;;18.88;;
43835;SDS011;39345;43.964;25.340;2022-12-20T03:46:05;40.47;;;18.10;;
43835;SDS011;39345;43.964;25.340;2022-12-20T03:48:36;41.67;;;18.25;;
43835;SDS011;39345;43.964;25.340;2022-12-20T03:51:03;40.75;;;18.13;;
43835;SDS011;39345;43.964;25.340;2022-12-20T03:53:31;38.45;;;18.13;;
43835;SDS011;39345;43.964;25.340;2022-12-20T03:55:59;38.20;;;17.50;;
43835;SDS011;39345;43.964;25.340;2022-12-20T03:58:26;41.90;;;18.60;;
43835;SDS011;39345;43.964;25.340;2022-12-20T04:00:55;37.72;;;18.25;;
43835;SDS011;39345;43.964;25.340;2022-12-20T04:03:36;40.17;;;18.60;;
43835;SDS011;39345;43.964;25.340;2022-12-20T04:06:04;42.53;;;18.75;;
43835;SDS011;39345;43.964;25.340;2022-12-20T04:08:31;44.03;;;18.20;;
43835;SDS011;39345;43.964;25.340;2022-12-20T04:10:59;39.60;;;19.10;;
43835;SDS011;39345;43.964;25.340;2022-12-20T04:13:53;38.67;;;18.25;;
43835;SDS011;39345;43.964;25.340;2022-12-20T04:16:23;38.50;;;18.45;;
43835;SDS011;39345;43.964;25.340;2022-12-20T04:18:52;43.50;;;18.63;;
43835;SDS011;39345;43.964;25.340;2022-12-20T04:21:22;41.67;;;18.67;;
43835;SDS011;39345;43.964;25.340;2022-12-20T04:23:51;38.88;;;18.83;;
43835;SDS011;39345;43.964;25.340;2022-12-20T04:26:21;42.35;;;19.80;;
43835;SDS011;39345;43.964;25.340;2022-12-20T04:28:48;40.88;;;18.35;;
43835;SDS011;39345;43.964;25.340;2022-12-20T04:31:17;39.92;;;19.45;;
43835;SDS011;39345;43.964;25.340;2022-12-20T04:33:51;45.22;;;20.48;;
43835;SDS011;39345;43.964;25.340;2022-12-20T04:36:19;36.55;;;18.40;;
43835;SDS011;39345;43.964;25.340;2022-12-20T04:38:49;40.85;;;17.98;;
43835;SDS011;39345;43.964;25.340;2022-12-20T04:41:17;40.13;;;19.52;;
43835;SDS011;39345;43.964;25.340;2022-12-20T04:43:55;44.05;;;18.92;;
43835;SDS011;39345;43.964;25.340;2022-12-20T04:46:29;41.13;;;18.35;;
43835;SDS011;39345;43.964;25.340;2022-12-20T04:48:58;41.08;;;19.15;;
43835;SDS011;39345;43.964;25.340;2022-12-20T04:51:28;42.38;;;18.15;;
43835;SDS011;39345;43.964;25.340;2022-12-20T04:53:56;42.25;;;17.98;;
43835;SDS011;39345;43.964;25.340;2022-12-20T04:56:37;38.60;;;19.27;;
43835;SDS011;39345;43.964;25.340;2022-12-20T04:59:08;37.67;;;17.42;;
43835;SDS011;39345;43.964;25.340;2022-12-20T05:01:40;44.60;;;19.42;;
43835;SDS011;39345;43.964;25.340;2022-12-20T05:04:09;37.20;;;17.80;;
43835;SDS011;39345;43.964;25.340;2022-12-20T05:06:37;47.28;;;20.33;;
43835;SDS011;39345;43.964;25.340;2022-12-20T05:09:05;40.88;;;18.50;;
43835;SDS011;39345;43.964;25.340;2022-12-20T05:11:33;40.40;;;18.45;;
43835;SDS011;39345;43.964;25.340;2022-12-20T05:14:04;43.40;;;19.67;;
43835;SDS011;39345;43.964;25.340;2022-12-20T05:16:31;39.42;;;18.98;;
43835;SDS011;39345;43.964;25.340;2022-12-20T05:18:59;44.40;;;19.85;;
43835;SDS011;39345;43.964;25.340;2022-12-20T05:21:32;45.13;;;19.67;;
43835;SDS011;39345;43.964;25.340;2022-12-20T05:24:18;44.85;;;19.40;;
43835;SDS011;39345;43.964;25.340;2022-12-20T05:27:25;49.13;;;19.73;;
43835;SDS011;39345;43.964;25.340;2022-12-20T05:29:53;45.15;;;19.98;;
43835;SDS011;39345;43.964;25.340;2022-12-20T05:32:20;48.40;;;20.90;;
43835;SDS011;39345;43.964;25.340;2022-12-20T05:34:50;46.85;;;20.80;;
43835;SDS011;39345;43.964;25.340;2022-12-20T05:37:18;43.33;;;20.25;;
43835;SDS011;39345;43.964;25.340;2022-12-20T05:39:46;46.60;;;20.48;;
43835;SDS011;39345;43.964;25.340;2022-12-20T05:42:18;38.50;;;18.17;;
43835;SDS011;39345;43.964;25.340;2022-12-20T05:44:49;46.53;;;22.73;;
43835;SDS011;39345;43.964;25.340;2022-12-20T05:47:18;46.63;;;19.45;;
43835;SDS011;39345;43.964;25.340;2022-12-20T05:49:51;55.67;;;22.90;;
43835;SDS011;39345;43.964;25.340;2022-12-20T05:52:19;53.20;;;24.27;;
43835;SDS011;39345;43.964;25.340;2022-12-20T05:54:46;52.33;;;23.17;;
43835;SDS011;39345;43.964;25.340;2022-12-20T05:57:16;53.15;;;23.67;;
43835;SDS011;39345;43.964;25.340;2022-12-20T05:59:44;47.40;;;21.35;;
43835;SDS011;39345;43.964;25.340;2022-12-20T06:02:17;54.28;;;21.80;;
43835;SDS011;39345;43.964;25.340;2022-12-20T06:04:49;46.70;;;21.15;;
43835;SDS011;39345;43.964;25.340;2022-12-20T06:07:21;47.22;;;21.30;;
43835;SDS011;39345;43.964;25.340;2022-12-20T06:09:54;51.00;;;22.45;;
43835;SDS011;39345;43.964;25.340;2022-12-20T06:12:30;58.72;;;26.02;;
43835;SDS011;39345;43.964;25.340;2022-12-20T06:14:57;55.47;;;22.80;;
43835;SDS011;39345;43.964;25.340;2022-12-20T06:17:25;51.40;;;22.17;;
43835;SDS011;39345;43.964;25.340;2022-12-20T06:19:53;50.13;;;20.35;;
43835;SDS011;39345;43.964;25.340;2022-12-20T06:22:20;49.00;;;21.52;;
43835;SDS011;39345;43.964;25.340;2022-12-20T06:24:53;50.03;;;21.80;;
43835;SDS011;39345;43.964;25.340;2022-12-20T06:30:15;48.75;;;22.83;;
43835;SDS011;39345;43.964;25.340;2022-12-20T06:33:00;51.13;;;21.80;;
43835;SDS011;39345;43.964;25.340;2022-12-20T06:35:28;44.85;;;20.55;;
43835;SDS011;39345;43.964;25.340;2022-12-20T06:37:55;46.35;;;21.00;;
43835;SDS011;39345;43.964;25.340;2022-12-20T06:40:23;44.92;;;20.20;;
43835;SDS011;39345;43.964;25.340;2022-12-20T06:42:51;45.63;;;20.13;;
43835;SDS011;39345;43.964;25.340;2022-12-20T06:45:21;55.47;;;22.83;;
43835;SDS011;39345;43.964;25.340;2022-12-20T06:47:51;56.05;;;24.67;;
43835;SDS011;39345;43.964;25.340;2022-12-20T06:50:19;53.53;;;24.33;;
43835;SDS011;39345;43.964;25.340;2022-12-20T06:52:47;52.50;;;25.00;;
43835;SDS011;39345;43.964;25.340;2022-12-20T06:55:16;53.83;;;22.92;;
43835;SDS011;39345;43.964;25.340;2022-12-20T06:57:44;71.57;;;32.10;;
43835;SDS011;39345;43.964;25.340;2022-12-20T07:00:13;52.72;;;23.98;;
43835;SDS011;39345;43.964;25.340;2022-12-20T07:02:41;52.03;;;24.00;;
43835;SDS011;39345;43.964;25.340;2022-12-20T07:05:08;50.75;;;22.90;;
43835;SDS011;39345;43.964;25.340;2022-12-20T07:07:36;47.78;;;22.92;;
43835;SDS011;39345;43.964;25.340;2022-12-20T07:10:10;48.25;;;22.20;;
43835;SDS011;39345;43.964;25.340;2022-12-20T07:12:37;46.70;;;21.70;;
43835;SDS011;39345;43.964;25.340;2022-12-20T07:15:13;50.83;;;22.48;;
43835;SDS011;39345;43.964;25.340;2022-12-20T07:17:40;52.38;;;25.83;;
43835;SDS011;39345;43.964;25.340;2022-12-20T07:20:09;56.25;;;23.88;;
43835;SDS011;39345;43.964;25.340;2022-12-20T07:22:40;50.65;;;23.23;;
43835;SDS011;39345;43.964;25.340;2022-12-20T07:25:09;48.72;;;23.38;;
43835;SDS011;39345;43.964;25.340;2022-12-20T07:27:36;48.72;;;21.70;;
43835;SDS011;39345;43.964;25.340;2022-12-20T07:30:04;48.63;;;22.35;;
43835;SDS011;39345;43.964;25.340;2022-12-20T07:32:32;45.38;;;21.52;;
43835;SDS011;39345;43.964;25.340;2022-12-20T07:34:59;43.22;;;22.33;;
43835;SDS011;39345;43.964;25.340;2022-12-20T07:37:27;48.95;;;22.60;;
43835;SDS011;39345;43.964;25.340;2022-12-20T07:39:55;49.17;;;21.30;;
43835;SDS011;39345;43.964;25.340;2022-12-20T07:42:23;48.38;;;20.60;;
43835;SDS011;39345;43.964;25.340;2022-12-20T07:44:59;46.17;;;21.35;;
43835;SDS011;39345;43.964;25.340;2022-12-20T07:47:27;46.53;;;22.38;;
43835;SDS011;39345;43.964;25.340;2022-12-20T07:49:55;49.20;;;22.65;;
43835;SDS011;39345;43.964;25.340;2022-12-20T07:52:22;50.17;;;22.25;;
43835;SDS011;39345;43.964;25.340;2022-12-20T07:54:52;49.25;;;23.00;;
43835;SDS011;39345;43.964;25.340;2022-12-20T07:57:22;52.97;;;23.73;;
43835;SDS011;39345;43.964;25.340;2022-12-20T07:59:53;49.22;;;22.50;;
43835;SDS011;39345;43.964;25.340;2022-12-20T08:02:26;44.88;;;20.80;;
43835;SDS011;39345;43.964;25.340;2022-12-20T08:04:57;46.08;;;22.83;;
43835;SDS011;39345;43.964;25.340;2022-12-20T08:07:26;50.50;;;24.20;;
43835;SDS011;39345;43.964;25.340;2022-12-20T08:09:54;53.38;;;24.45;;
43835;SDS011;39345;43.964;25.340;2022-12-20T08:12:21;55.70;;;25.45;;
43835;SDS011;39345;43.964;25.340;2022-12-20T08:14:50;49.45;;;23.38;;
43835;SDS011;39345;43.964;25.340;2022-12-20T08:17:21;51.05;;;24.65;;
43835;SDS011;39345;43.964;25.340;2022-12-20T08:19:49;57.60;;;24.52;;
43835;SDS011;39345;43.964;25.340;2022-12-20T08:22:17;45.85;;;21.23;;
43835;SDS011;39345;43.964;25.340;2022-12-20T08:24:45;56.15;;;24.23;;
43835;SDS011;39345;43.964;25.340;2022-12-20T08:27:12;49.42;;;23.38;;
43835;SDS011;39345;43.964;25.340;2022-12-20T08:29:40;47.33;;;23.52;;
43835;SDS011;39345;43.964;25.340;2022-12-20T08:32:08;50.70;;;22.95;;
43835;SDS011;39345;43.964;25.340;2022-12-20T08:34:36;52.08;;;23.35;;
43835;SDS011;39345;43.964;25.340;2022-12-20T08:37:03;51.63;;;24.45;;
43835;SDS011;39345;43.964;25.340;2022-12-20T08:39:39;53.35;;;24.05;;
43835;SDS011;39345;43.964;25.340;2022-12-20T08:42:07;50.95;;;25.15;;
43835;SDS011;39345;43.964;25.340;2022-12-20T08:44:34;49.38;;;22.65;;
43835;SDS011;39345;43.964;25.340;2022-12-20T08:47:02;50.42;;;24.48;;
43835;SDS011;39345;43.964;25.340;2022-12-20T08:49:29;49.45;;;22.98;;
43835;SDS011;39345;43.964;25.340;2022-12-20T08:51:57;54.83;;;23.90;;
43835;SDS011;39345;43.964;25.340;2022-12-20T08:54:24;47.75;;;22.75;;
43835;SDS011;39345;43.964;25.340;2022-12-20T08:56:52;74.15;;;25.98;;
43835;SDS011;39345;43.964;25.340;2022-12-20T08:59:19;53.42;;;23.50;;
43835;SDS011;39345;43.964;25.340;2022-12-20T09:01:47;47.38;;;24.02;;
43835;SDS011;39345;43.964;25.340;2022-12-20T09:04:16;54.95;;;25.80;;
43835;SDS011;39345;43.964;25.340;2022-12-20T09:06:43;56.28;;;25.30;;
43835;SDS011;39345;43.964;25.340;2022-12-20T09:09:10;57.58;;;25.70;;
43835;SDS011;39345;43.964;25.340;2022-12-20T09:11:38;56.20;;;25.50;;
43835;SDS011;39345;43.964;25.340;2022-12-20T09:14:06;59.80;;;26.23;;
43835;SDS011;39345;43.964;25.340;2022-12-20T09:16:33;63.38;;;27.67;;
43835;SDS011;39345;43.964;25.340;2022-12-20T09:19:01;55.47;;;25.10;;
43835;SDS011;39345;43.964;25.340;2022-12-20T09:21:31;53.13;;;24.02;;
43835;SDS011;39345;43.964;25.340;2022-12-20T09:23:59;55.65;;;24.60;;
43835;SDS011;39345;43.964;25.340;2022-12-20T09:26:27;54.53;;;24.75;;
43835;SDS011;39345;43.964;25.340;2022-12-20T09:28:54;60.38;;;25.90;;
43835;SDS011;39345;43.964;25.340;2022-12-20T09:31:22;51.33;;;24.52;;
43835;SDS011;39345;43.964;25.340;2022-12-20T09:33:54;51.80;;;23.88;;
43835;SDS011;39345;43.964;25.340;2022-12-20T09:36:22;67.07;;;30.27;;
43835;SDS011;39345;43.964;25.340;2022-12-20T09:38:50;53.00;;;24.55;;
43835;SDS011;39345;43.964;25.340;2022-12-20T09:41:37;46.05;;;22.88;;
43835;SDS011;39345;43.964;25.340;2022-12-20T09:44:13;45.25;;;21.80;;
43835;SDS011;39345;43.964;25.340;2022-12-20T09:46:42;67.22;;;29.45;;
43835;SDS011;39345;43.964;25.340;2022-12-20T09:49:14;59.75;;;27.30;;
43835;SDS011;39345;43.964;25.340;2022-12-20T09:54:18;49.47;;;23.90;;
43835;SDS011;39345;43.964;25.340;2022-12-20T09:59:32;49.15;;;23.70;;
43835;SDS011;39345;43.964;25.340;2022-12-20T10:02:10;50.90;;;23.63;;
43835;SDS011;39345;43.964;25.340;2022-12-20T10:04:58;44.38;;;21.80;;
43835;SDS011;39345;43.964;25.340;2022-12-20T10:25:31;46.00;;;21.38;;
43835;SDS011;39345;43.964;25.340;2022-12-20T10:28:03;46.00;;;22.17;;
43835;SDS011;39345;43.964;25.340;2022-12-20T10:30:49;46.47;;;22.42;;
43835;SDS011;39345;43.964;25.340;2022-12-20T10:33:18;43.45;;;22.05;;
43835;SDS011;39345;43.964;25.340;2022-12-20T10:35:46;45.83;;;21.92;;
43835;SDS011;39345;43.964;25.340;2022-12-20T10:38:16;45.95;;;23.00;;
43835;SDS011;39345;43.964;25.340;2022-12-20T10:40:49;47.63;;;22.77;;
43835;SDS011;39345;43.964;25.340;2022-12-20T10:43:46;49.75;;;22.80;;
43835;SDS011;39345;43.964;25.340;2022-12-20T10:46:14;45.80;;;21.63;;
43835;SDS011;39345;43.964;25.340;2022-12-20T10:48:43;44.60;;;21.48;;
43835;SDS011;39345;43.964;25.340;2022-12-20T10:53:58;46.10;;;20.25;;
43835;SDS011;39345;43.964;25.340;2022-12-20T10:59:02;49.03;;;21.05;;
43835;SDS011;39345;43.964;25.340;2022-12-20T11:04:29;43.80;;;20.02;;
43835;SDS011;39345;43.964;25.340;2022-12-20T11:06:44;45.40;;;21.50;;
43835;SDS011;39345;43.964;25.340;2022-12-20T11:11:56;48.55;;;22.98;;
43835;SDS011;39345;43.964;25.340;2022-12-20T11:14:23;55.90;;;24.13;;
43835;SDS011;39345;43.964;25.340;2022-12-20T11:16:52;51.60;;;24.13;;
43835;SDS011;39345;43.964;25.340;2022-12-20T11:19:29;61.60;;;27.83;;
43835;SDS011;39345;43.964;25.340;2022-12-20T11:24:32;49.22;;;22.88;;
43835;SDS011;39345;43.964;25.340;2022-12-20T11:32:32;51.53;;;22.83;;
43835;SDS011;39345;43.964;25.340;2022-12-20T11:50:37;47.95;;;22.50;;
43835;SDS011;39345;43.964;25.340;2022-12-20T11:53:52;45.92;;;21.60;;
43835;SDS011;39345;43.964;25.340;2022-12-20T11:55:55;49.03;;;22.45;;
43835;SDS011;39345;43.964;25.340;2022-12-20T11:58:25;48.72;;;22.52;;
43835;SDS011;39345;43.964;25.340;2022-12-20T12:00:56;53.55;;;24.10;;
43835;SDS011;39345;43.964;25.340;2022-12-20T12:03:29;53.00;;;24.85;;
43835;SDS011;39345;43.964;25.340;2022-12-20T12:05:59;51.55;;;21.67;;
43835;SDS011;39345;43.964;25.340;2022-12-20T12:11:43;46.95;;;21.42;;
43835;SDS011;39345;43.964;25.340;2022-12-20T12:14:04;49.20;;;23.60;;
43835;SDS011;39345;43.964;25.340;2022-12-20T12:16:39;47.97;;;22.10;;
43835;SDS011;39345;43.964;25.340;2022-12-20T12:19:10;51.10;;;24.40;;
43835;SDS011;39345;43.964;25.340;2022-12-20T12:21:56;56.08;;;24.13;;
43835;SDS011;39345;43.964;25.340;2022-12-20T12:24:28;47.00;;;21.60;;
43835;SDS011;39345;43.964;25.340;2022-12-20T12:26:59;47.30;;;22.60;;
43835;SDS011;39345;43.964;25.340;2022-12-20T12:29:27;48.13;;;22.83;;
43835;SDS011;39345;43.964;25.340;2022-12-20T12:47:36;50.33;;;23.40;;
43835;SDS011;39345;43.964;25.340;2022-12-20T12:50:07;50.80;;;23.52;;
43835;SDS011;39345;43.964;25.340;2022-12-20T12:55:02;50.70;;;23.73;;
43835;SDS011;39345;43.964;25.340;2022-12-20T12:57:30;48.92;;;23.10;;
43835;SDS011;39345;43.964;25.340;2022-12-20T13:01:04;50.08;;;22.95;;
43835;SDS011;39345;43.964;25.340;2022-12-20T13:03:12;53.20;;;23.75;;
43835;SDS011;39345;43.964;25.340;2022-12-20T13:05:41;47.28;;;22.35;;
43835;SDS011;39345;43.964;25.340;2022-12-20T13:08:13;52.90;;;23.45;;
43835;SDS011;39345;43.964;25.340;2022-12-20T13:13:13;50.15;;;22.92;;
43835;SDS011;39345;43.964;25.340;2022-12-20T13:20:36;55.67;;;25.02;;
43835;SDS011;39345;43.964;25.340;2022-12-20T13:25:35;47.13;;;21.10;;
43835;SDS011;39345;43.964;25.340;2022-12-20T13:30:44;50.08;;;22.70;;
43835;SDS011;39345;43.964;25.340;2022-12-20T13:33:54;50.08;;;23.73;;
43835;SDS011;39345;43.964;25.340;2022-12-20T13:36:03;49.25;;;23.17;;
43835;SDS011;39345;43.964;25.340;2022-12-20T13:41:10;60.08;;;24.25;;
43835;SDS011;39345;43.964;25.340;2022-12-20T13:43:41;54.33;;;25.90;;
43835;SDS011;39345;43.964;25.340;2022-12-20T13:51:19;57.08;;;25.55;;
43835;SDS011;39345;43.964;25.340;2022-12-20T13:58:56;61.80;;;27.25;;
43835;SDS011;39345;43.964;25.340;2022-12-20T14:01:24;59.20;;;28.58;;
43835;SDS011;39345;43.964;25.340;2022-12-20T14:03:52;55.15;;;25.02;;
43835;SDS011;39345;43.964;25.340;2022-12-20T14:06:20;53.40;;;25.42;;
43835;SDS011;39345;43.964;25.340;2022-12-20T14:08:52;56.72;;;24.85;;
43835;SDS011;39345;43.964;25.340;2022-12-20T14:11:21;60.83;;;27.65;;
43835;SDS011;39345;43.964;25.340;2022-12-20T14:13:50;64.32;;;28.70;;
43835;SDS011;39345;43.964;25.340;2022-12-20T14:16:18;63.20;;;27.75;;
43835;SDS011;39345;43.964;25.340;2022-12-20T14:19:05;63.05;;;26.63;;
43835;SDS011;39345;43.964;25.340;2022-12-20T14:21:36;58.80;;;26.63;;
43835;SDS011;39345;43.964;25.340;2022-12-20T14:24:05;61.80;;;28.02;;
43835;SDS011;39345;43.964;25.340;2022-12-20T14:26:40;72.97;;;29.70;;
43835;SDS011;39345;43.964;25.340;2022-12-20T14:29:10;68.45;;;28.92;;
43835;SDS011;39345;43.964;25.340;2022-12-20T14:31:42;57.70;;;26.50;;
43835;SDS011;39345;43.964;25.340;2022-12-20T14:36:45;63.50;;;26.35;;
43835;SDS011;39345;43.964;25.340;2022-12-20T14:39:23;63.00;;;26.48;;
43835;SDS011;39345;43.964;25.340;2022-12-20T14:41:55;73.25;;;26.80;;
43835;SDS011;39345;43.964;25.340;2022-12-20T14:44:24;62.63;;;27.23;;
43835;SDS011;39345;43.964;25.340;2022-12-20T14:49:35;62.65;;;24.92;;
43835;SDS011;39345;43.964;25.340;2022-12-20T14:52:46;61.65;;;27.20;;
43835;SDS011;39345;43.964;25.340;2022-12-20T15:00:11;59.47;;;25.23;;
43835;SDS011;39345;43.964;25.340;2022-12-20T15:08:08;60.70;;;25.75;;
43835;SDS011;39345;43.964;25.340;2022-12-20T15:10:36;54.35;;;24.58;;
43835;SDS011;39345;43.964;25.340;2022-12-20T15:13:03;59.70;;;25.92;;
43835;SDS011;39345;43.964;25.340;2022-12-20T15:15:31;60.72;;;25.25;;
43835;SDS011;39345;43.964;25.340;2022-12-20T15:17:59;62.65;;;26.48;;
43835;SDS011;39345;43.964;25.340;2022-12-20T15:20:27;63.70;;;26.45;;
43835;SDS011;39345;43.964;25.340;2022-12-20T15:22:54;66.22;;;27.58;;
43835;SDS011;39345;43.964;25.340;2022-12-20T15:25:22;67.32;;;28.73;;
43835;SDS011;39345;43.964;25.340;2022-12-20T15:27:49;63.67;;;28.27;;
43835;SDS011;39345;43.964;25.340;2022-12-20T15:30:17;65.25;;;30.48;;
43835;SDS011;39345;43.964;25.340;2022-12-20T15:32:44;64.90;;;27.27;;
43835;SDS011;39345;43.964;25.340;2022-12-20T15:35:21;61.05;;;26.45;;
43835;SDS011;39345;43.964;25.340;2022-12-20T15:37:49;71.43;;;29.10;;
43835;SDS011;39345;43.964;25.340;2022-12-20T15:40:17;80.03;;;30.67;;
43835;SDS011;39345;43.964;25.340;2022-12-20T15:42:44;64.13;;;30.33;;
43835;SDS011;39345;43.964;25.340;2022-12-20T15:45:12;74.45;;;33.90;;
43835;SDS011;39345;43.964;25.340;2022-12-20T15:47:40;69.85;;;30.50;;
43835;SDS011;39345;43.964;25.340;2022-12-20T15:50:09;60.28;;;26.73;;
43835;SDS011;39345;43.964;25.340;2022-12-20T15:52:37;69.65;;;28.63;;
43835;SDS011;39345;43.964;25.340;2022-12-20T15:55:05;70.35;;;29.98;;
43835;SDS011;39345;43.964;25.340;2022-12-20T15:57:32;73.05;;;32.28;;
43835;SDS011;39345;43.964;25.340;2022-12-20T16:00:00;74.63;;;29.80;;
43835;SDS011;39345;43.964;25.340;2022-12-20T16:02:36;65.38;;;27.95;;
43835;SDS011;39345;43.964;25.340;2022-12-20T16:05:04;57.67;;;25.52;;
43835;SDS011;39345;43.964;25.340;2022-12-20T16:07:34;59.45;;;25.85;;
43835;SDS011;39345;43.964;25.340;2022-12-20T16:10:01;57.38;;;25.10;;
43835;SDS011;39345;43.964;25.340;2022-12-20T16:12:31;61.50;;;26.83;;
43835;SDS011;39345;43.964;25.340;2022-12-20T16:14:59;59.85;;;25.73;;
43835;SDS011;39345;43.964;25.340;2022-12-20T16:17:26;61.05;;;25.35;;
43835;SDS011;39345;43.964;25.340;2022-12-20T16:19:54;55.10;;;26.30;;
43835;SDS011;39345;43.964;25.340;2022-12-20T16:22:22;55.38;;;23.73;;
43835;SDS011;39345;43.964;25.340;2022-12-20T16:24:50;60.45;;;26.70;;
43835;SDS011;39345;43.964;25.340;2022-12-20T16:27:18;56.05;;;24.65;;
43835;SDS011;39345;43.964;25.340;2022-12-20T16:29:46;67.15;;;27.45;;
43835;SDS011;39345;43.964;25.340;2022-12-20T16:32:14;66.57;;;26.30;;
43835;SDS011;39345;43.964;25.340;2022-12-20T16:34:42;62.25;;;25.13;;
43835;SDS011;39345;43.964;25.340;2022-12-20T16:37:09;59.83;;;24.58;;
43835;SDS011;39345;43.964;25.340;2022-12-20T16:39:37;65.07;;;26.33;;
43835;SDS011;39345;43.964;25.340;2022-12-20T16:42:14;61.80;;;26.55;;
43835;SDS011;39345;43.964;25.340;2022-12-20T16:44:42;60.65;;;25.92;;
43835;SDS011;39345;43.964;25.340;2022-12-20T16:47:11;58.20;;;25.55;;
43835;SDS011;39345;43.964;25.340;2022-12-20T16:49:40;61.50;;;25.63;;